CBY5 weather

Seal Cove (Coast Guard) Heliport
Prince Rupert, British Columbia, Canada

Public forecast

Using degrees Celsius for public forecast. Weather courtesy of forecast.io.

Closest aviation weather report (METAR) to Seal Cove (Coast Guard) Heliport

Closest report is Prince Rupert Airport, 6.5 nm (12.0 km) WSW. Retrieved 2019/11/18 07:00 UTC (42 minutes ago):

CYPR 180700Z AUTO 17003KT 120V190 9SM FEW035 SCT046 BKN055 OVC080 08/07 A3004 RMK SLP176

Closest aviation forecast (TAF) to Seal Cove (Coast Guard) Heliport

Closest forecast is Prince Rupert Airport, 6.5 nm (12.0 km) WSW. Retrieved 2019/11/18 07:42 UTC (10 seconds ago):

TAF CYPR 180638Z 1807/1819 16005KT P6SM SCT020 BKN060 TEMPO 1807/1819 5SM -SHRA BR BKN020 OVC040 RMK FCST BASED ON AUTO OBS NXT FCST BY 181300Z